Time;durP1;ratioP1;P1;durP2;ratioP2;P2;SDS_P1;SDS_P2;PMS_P1;PMS_P2;Temp;Humidity;BMP_temperature;BMP_pressure;BME280_temperature;BME280_humidity;BME280_pressure;Samples;Min_cycle;Max_cycle;Signal;HPM_P1;HPM_P2
2023/06/30 00:01:48;;;;;;;0.90;0.73;;;17.50;59.70;;;;;;5111789;28;20115;-79
2023/06/30 00:04:32;;;;;;;0.20;0.20;;;17.50;59.70;;;;;;5113635;28;20388;-79
2023/06/30 00:06:59;;;;;;;6.03;0.90;;;17.50;59.90;;;;;;5112959;28;20034;-79
2023/06/30 00:09:26;;;;;;;0.73;0.30;;;17.40;59.70;;;;;;5094834;28;20062;-79
2023/06/30 00:11:55;;;;;;;0.20;0.20;;;17.40;59.30;;;;;;5094460;28;20391;-80
2023/06/30 00:14:22;;;;;;;0.30;0.30;;;17.40;60.20;;;;;;5112158;28;20097;-79
2023/06/30 00:16:50;;;;;;;0.25;0.25;;;17.40;59.80;;;;;;5094629;28;20081;-79
2023/06/30 00:19:36;;;;;;;0.30;0.30;;;17.40;59.90;;;;;;5095140;28;20504;-79
2023/06/30 00:22:02;;;;;;;0.25;0.25;;;17.40;60.10;;;;;;5094600;28;20031;-79
2023/06/30 00:24:28;;;;;;;;;;;17.40;60.40;;;;;;5095454;28;20036;-79
2023/06/30 00:26:55;;;;;;;0.30;0.25;;;17.40;60.20;;;;;;5111494;28;19911;-78
2023/06/30 00:29:20;;;;;;;;;;;17.30;60.60;;;;;;5115010;28;20039;-78
2023/06/30 00:31:46;;;;;;;0.20;0.20;;;17.20;60.40;;;;;;5115723;28;20026;-79
2023/06/30 00:34:12;;;;;;;0.10;0.10;;;17.20;60.60;;;;;;5116181;28;20036;-79
2023/06/30 00:36:39;;;;;;;0.10;0.10;;;17.20;60.60;;;;;;5115572;28;20537;-80
2023/06/30 00:39:05;;;;;;;5.20;2.65;;;17.10;60.70;;;;;;5116150;28;20078;-79
2023/06/30 00:41:31;;;;;;;0.65;0.57;;;17.10;61.70;;;;;;5116906;28;20507;-79
2023/06/30 00:43:58;;;;;;;0.43;0.20;;;17.10;60.90;;;;;;5115930;28;20138;-79
2023/06/30 00:46:24;;;;;;;0.20;0.20;;;17.10;61.00;;;;;;5116631;28;20057;-78
2023/06/30 00:48:50;;;;;;;0.75;0.63;;;17.10;61.10;;;;;;5115844;28;20036;-79
2023/06/30 00:51:16;;;;;;;0.22;0.22;;;17.20;61.10;;;;;;5115413;28;20031;-79
2023/06/30 00:53:43;;;;;;;1.70;0.85;;;17.10;61.10;;;;;;5115607;28;20047;-79
2023/06/30 00:56:09;;;;;;;0.43;0.40;;;17.10;61.10;;;;;;5098283;28;20023;-79
2023/06/30 00:58:35;;;;;;;;;;;17.10;61.30;;;;;;5116064;28;20066;-78
2023/06/30 01:01:41;;;;;;;0.47;0.40;;;17.10;62.00;;;;;;5116358;28;19912;-78
2023/06/30 01:05:03;;;;;;;0.55;0.30;;;17.00;61.30;;;;;;5116908;28;20034;-79
2023/06/30 01:08:09;;;;;;;0.10;0.10;;;16.90;61.40;;;;;;5115243;28;20024;-79
2023/06/30 01:10:35;;;;;;;0.10;0.10;;;16.90;61.40;;;;;;5114934;28;20040;-79
2023/06/30 01:13:02;;;;;;;0.75;0.50;;;16.90;61.10;;;;;;5098104;28;20483;-79
2023/06/30 01:15:29;;;;;;;0.10;0.10;;;16.90;61.70;;;;;;5114897;28;20034;-80
2023/06/30 01:18:00;;;;;;;1.95;1.00;;;16.80;61.60;;;;;;5098221;28;20024;-79
2023/06/30 01:20:29;;;;;;;1.48;1.10;;;16.80;61.60;;;;;;5114816;28;20039;-79
2023/06/30 01:23:20;;;;;;;0.22;0.22;;;16.80;61.80;;;;;;5115300;28;20049;-79
2023/06/30 01:25:48;;;;;;;0.85;0.32;;;16.80;61.60;;;;;;5115974;28;20035;-80
2023/06/30 01:28:16;;;;;;;0.32;0.32;;;16.70;61.90;;;;;;5098100;28;20020;-79
2023/06/30 01:30:42;;;;;;;0.45;0.38;;;16.60;61.90;;;;;;5097640;28;20024;-79
2023/06/30 01:33:10;;;;;;;0.20;0.20;;;16.60;61.60;;;;;;5114904;28;20074;-79
2023/06/30 01:35:36;;;;;;;0.45;0.30;;;16.60;62.10;;;;;;5097589;28;20028;-79
2023/06/30 01:38:02;;;;;;;;;;;16.60;61.90;;;;;;5116639;28;20472;-79
2023/06/30 01:40:29;;;;;;;0.68;0.25;;;16.70;61.80;;;;;;5096182;28;20455;-79
2023/06/30 01:42:57;;;;;;;0.80;0.45;;;16.60;61.60;;;;;;5097884;28;20423;-79
2023/06/30 01:45:43;;;;;;;0.52;0.40;;;16.50;61.60;;;;;;5097244;28;20044;-79
2023/06/30 01:48:10;;;;;;;0.20;0.20;;;16.50;61.30;;;;;;5114672;28;20024;-79
2023/06/30 01:50:37;;;;;;;1.02;0.32;;;16.50;61.90;;;;;;5115412;28;20115;-79
2023/06/30 01:53:03;;;;;;;2.72;0.40;;;16.50;62.00;;;;;;5097765;28;20034;-79
2023/06/30 01:55:29;;;;;;;;;;;16.40;62.00;;;;;;5114709;28;20084;-80
2023/06/30 01:57:55;;;;;;;0.20;0.20;;;16.50;61.60;;;;;;5115045;28;19912;-79
2023/06/30 02:00:21;;;;;;;0.22;0.20;;;16.40;61.80;;;;;;5097234;28;20454;-79
2023/06/30 02:02:47;;;;;;;;;;;16.40;61.90;;;;;;5116234;28;20084;-79
2023/06/30 02:05:13;;;;;;;0.52;0.20;;;16.40;62.00;;;;;;5114089;28;19919;-79
2023/06/30 02:07:39;;;;;;;0.25;0.25;;;16.50;62.00;;;;;;5114545;28;20530;-80
2023/06/30 02:10:07;;;;;;;0.40;0.40;;;16.50;62.20;;;;;;5114012;28;20051;-79
2023/06/30 02:12:33;;;;;;;1.75;0.30;;;16.50;62.40;;;;;;5115221;28;20028;-79
2023/06/30 02:14:59;;;;;;;0.35;0.30;;;16.50;62.50;;;;;;5097308;28;20126;-79
2023/06/30 02:17:44;;;;;;;0.80;0.57;;;16.50;62.70;;;;;;5113729;28;20035;-79
2023/06/30 02:20:12;;;;;;;0.20;0.20;;;16.50;62.80;;;;;;5113778;28;20492;-78
2023/06/30 02:22:38;;;;;;;1.65;0.40;;;16.40;62.70;;;;;;5097175;28;20031;-79
2023/06/30 02:25:05;;;;;;;0.30;0.30;;;16.40;63.00;;;;;;5114043;28;20032;-79
2023/06/30 02:27:32;;;;;;;0.82;0.35;;;16.40;63.10;;;;;;5113989;28;20556;-80
2023/06/30 02:30:04;;;;;;;;;;;16.40;63.40;;;;;;5097454;28;20040;-81
2023/06/30 02:32:31;;;;;;;0.30;0.30;;;16.40;63.40;;;;;;5097668;28;19916;-80
2023/06/30 02:34:57;;;;;;;0.55;0.50;;;16.30;63.40;;;;;;5097001;28;20035;-80
2023/06/30 02:37:23;;;;;;;1.15;0.73;;;16.30;63.60;;;;;;5113591;28;20024;-81
2023/06/30 02:39:49;;;;;;;0.65;0.60;;;16.20;63.70;;;;;;5113952;28;20043;-79
2023/06/30 02:42:15;;;;;;;0.35;0.30;;;16.20;63.80;;;;;;5113497;28;20036;-80
2023/06/30 02:44:41;;;;;;;0.20;0.20;;;16.20;63.80;;;;;;5096712;28;20553;-80
2023/06/30 02:47:07;;;;;;;0.25;0.25;;;16.20;63.80;;;;;;5113437;28;20031;-80
2023/06/30 02:49:33;;;;;;;1.45;0.90;;;16.20;63.90;;;;;;5096572;28;20069;-81
2023/06/30 02:51:59;;;;;;;0.10;0.10;;;16.10;64.30;;;;;;5096033;28;20031;-80
2023/06/30 02:54:25;;;;;;;1.00;0.40;;;16.10;64.30;;;;;;5096686;28;20415;-82
2023/06/30 02:56:51;;;;;;;9.35;1.05;;;16.20;64.20;;;;;;5113315;28;20492;-81
2023/06/30 02:59:18;;;;;;;0.40;0.30;;;16.10;64.20;;;;;;5113340;28;20067;-81
2023/06/30 03:01:44;;;;;;;;;;;16.10;64.20;;;;;;5114780;28;20089;-81
2023/06/30 03:04:10;;;;;;;0.60;0.40;;;16.10;64.20;;;;;;5096600;28;20287;-80
2023/06/30 03:06:36;;;;;;;3.70;1.25;;;16.00;64.20;;;;;;5095872;28;20467;-80
2023/06/30 03:09:03;;;;;;;0.80;0.75;;;16.10;64.60;;;;;;5096032;28;20044;-82
2023/06/30 03:11:28;;;;;;;;;;;16.00;64.50;;;;;;5113504;28;20046;-80
2023/06/30 03:13:54;;;;;;;1.17;0.57;;;16.10;64.60;;;;;;5096063;28;20280;-81
2023/06/30 03:16:21;;;;;;;0.63;0.40;;;16.10;64.60;;;;;;5112642;28;20028;-80
2023/06/30 03:18:47;;;;;;;1.13;0.75;;;16.10;64.60;;;;;;5112942;28;20445;-81
2023/06/30 03:21:13;;;;;;;0.50;0.50;;;16.10;64.70;;;;;;5095680;28;20060;-80
2023/06/30 03:23:41;;;;;;;0.30;0.25;;;16.00;64.60;;;;;;5112793;28;20484;-79
2023/06/30 03:26:07;;;;;;;0.25;0.20;;;16.00;64.80;;;;;;5112391;28;20031;-80
2023/06/30 03:28:35;;;;;;;0.65;0.40;;;16.00;64.80;;;;;;5114014;28;20093;-80
2023/06/30 03:31:01;;;;;;;0.47;0.38;;;16.00;65.00;;;;;;5095933;28;20035;-80
2023/06/30 03:33:28;;;;;;;;;;;16.00;64.70;;;;;;5113370;28;20051;-81
2023/06/30 03:35:54;;;;;;;1.08;0.80;;;16.00;65.10;;;;;;5095111;28;20367;-80
2023/06/30 03:38:20;;;;;;;0.40;0.35;;;16.00;65.00;;;;;;5096073;28;20035;-78
2023/06/30 03:40:46;;;;;;;0.30;0.30;;;16.00;65.30;;;;;;5112008;28;20040;-79
2023/06/30 03:43:12;;;;;;;0.20;0.20;;;16.00;65.30;;;;;;5112695;28;20051;-79
2023/06/30 03:45:38;;;;;;;0.10;0.10;;;16.00;65.10;;;;;;5112025;28;20074;-80
2023/06/30 03:48:05;;;;;;;1.08;0.30;;;16.00;65.20;;;;;;5112475;28;20024;-80
2023/06/30 03:50:31;;;;;;;0.50;0.28;;;16.00;64.60;;;;;;5111788;28;20031;-80
2023/06/30 03:52:57;;;;;;;0.20;0.20;;;16.00;65.30;;;;;;5095713;28;20032;-79
2023/06/30 03:55:23;;;;;;;2.33;0.50;;;16.00;65.30;;;;;;5112016;28;20487;-79
2023/06/30 03:57:49;;;;;;;;;;;16.00;65.30;;;;;;5096089;28;20023;-78
2023/06/30 04:00:16;;;;;;;0.75;0.75;;;16.00;65.10;;;;;;5111910;28;19922;-79
2023/06/30 04:02:42;;;;;;;0.95;0.40;;;16.00;64.40;;;;;;5112038;28;20044;-79
2023/06/30 04:05:08;;;;;;;0.10;0.10;;;16.00;65.20;;;;;;5111534;28;20035;-79
2023/06/30 04:07:34;;;;;;;;;;;16.10;65.40;;;;;;5095721;28;20474;-79
2023/06/30 04:10:01;;;;;;;0.13;0.13;;;16.10;65.00;;;;;;5095048;28;19920;-79
2023/06/30 04:12:27;;;;;;;0.38;0.38;;;16.20;65.10;;;;;;5094610;28;20483;-79
2023/06/30 04:14:53;;;;;;;0.95;0.50;;;16.20;65.10;;;;;;5112134;28;20042;-79
2023/06/30 04:17:19;;;;;;;0.40;0.35;;;16.10;65.10;;;;;;5111833;28;20076;-80
2023/06/30 04:19:45;;;;;;;1.10;0.70;;;16.20;65.20;;;;;;5112129;28;20044;-80
2023/06/30 04:22:11;;;;;;;0.88;0.63;;;16.30;65.20;;;;;;5094781;28;20038;-79
2023/06/30 04:24:37;;;;;;;0.30;0.30;;;16.30;65.20;;;;;;5111961;28;20039;-79
2023/06/30 04:27:04;;;;;;;0.47;0.40;;;16.30;65.20;;;;;;5111756;28;20035;-79
2023/06/30 04:29:30;;;;;;;0.73;0.73;;;16.40;64.70;;;;;;5095014;28;20176;-80
2023/06/30 04:31:56;;;;;;;0.47;0.30;;;16.40;65.20;;;;;;5111532;28;20575;-79
2023/06/30 04:34:22;;;;;;;2.15;1.35;;;16.50;65.30;;;;;;5111931;28;20035;-80
2023/06/30 04:36:49;;;;;;;0.43;0.15;;;16.50;65.20;;;;;;5094422;28;20028;-78
2023/06/30 04:39:16;;;;;;;0.43;0.30;;;16.50;65.40;;;;;;5111768;28;20097;-79
2023/06/30 04:41:42;;;;;;;0.93;0.63;;;16.60;64.70;;;;;;5111368;28;20404;-79
2023/06/30 04:44:08;;;;;;;;;;;16.60;65.20;;;;;;5112339;28;20035;-80
2023/06/30 04:46:34;;;;;;;1.75;1.02;;;16.60;65.20;;;;;;5111485;28;19919;-79
2023/06/30 04:49:00;;;;;;;0.65;0.35;;;16.60;66.70;;;;;;5111706;28;20096;-80
2023/06/30 04:51:26;;;;;;;1.08;0.60;;;16.60;66.30;;;;;;5094290;28;20431;-79
2023/06/30 04:53:53;;;;;;;0.32;0.30;;;16.70;66.00;;;;;;5111530;28;20463;-79
2023/06/30 04:56:20;;;;;;;0.20;0.20;;;16.80;65.80;;;;;;5111277;28;20036;-79
2023/06/30 04:58:48;;;;;;;0.90;0.65;;;16.80;65.70;;;;;;5111524;28;20043;-79
2023/06/30 05:01:14;;;;;;;0.70;0.40;;;16.80;65.20;;;;;;5094266;28;20092;-79
2023/06/30 05:03:40;;;;;;;0.30;0.28;;;16.90;66.40;;;;;;5094598;28;20040;-80
2023/06/30 05:06:06;;;;;;;0.32;0.28;;;16.90;66.30;;;;;;5094227;28;20038;-79
2023/06/30 05:08:32;;;;;;;0.43;0.30;;;17.00;66.40;;;;;;5094282;28;20046;-79
2023/06/30 05:10:58;;;;;;;0.90;0.57;;;17.00;66.30;;;;;;5110979;28;20040;-78
2023/06/30 05:13:26;;;;;;;0.75;0.43;;;17.10;66.30;;;;;;5111378;28;20043;-79
2023/06/30 05:15:53;;;;;;;0.60;0.40;;;17.10;66.40;;;;;;5114092;28;20028;-79
2023/06/30 05:18:19;;;;;;;0.30;0.30;;;17.20;66.30;;;;;;5098303;28;20035;-79
2023/06/30 05:20:45;;;;;;;;;;;17.20;66.10;;;;;;5098232;28;20031;-79
2023/06/30 05:23:11;;;;;;;0.10;0.10;;;17.30;66.20;;;;;;5115192;28;19912;-79
2023/06/30 05:25:37;;;;;;;;;;;17.40;66.10;;;;;;5098096;28;20072;-79
2023/06/30 05:28:03;;;;;;;0.55;0.55;;;17.40;65.90;;;;;;5115117;28;19912;-79
2023/06/30 05:30:30;;;;;;;0.88;0.30;;;17.40;65.40;;;;;;5114456;28;20020;-79
2023/06/30 05:32:56;;;;;;;0.30;0.28;;;17.50;66.40;;;;;;5115439;28;20400;-78
2023/06/30 05:35:22;;;;;;;0.47;0.20;;;17.60;66.20;;;;;;5097779;28;20035;-79
2023/06/30 05:37:48;;;;;;;0.80;0.63;;;17.70;67.00;;;;;;5097927;28;20392;-79
2023/06/30 05:40:14;;;;;;;0.65;0.38;;;17.70;67.50;;;;;;5114532;28;20043;-78
2023/06/30 05:42:40;;;;;;;;;;;17.80;67.30;;;;;;5098379;28;20434;-79
2023/06/30 05:45:07;;;;;;;0.70;0.47;;;17.90;66.80;;;;;;5097657;28;19919;-79
2023/06/30 05:47:33;;;;;;;2.38;0.47;;;17.90;67.20;;;;;;5116045;28;20034;-79
2023/06/30 05:49:59;;;;;;;;;;;18.00;67.20;;;;;;5116799;28;20039;-79
2023/06/30 05:52:27;;;;;;;0.55;0.40;;;18.10;66.80;;;;;;5097189;28;19918;-79
2023/06/30 05:54:53;;;;;;;0.38;0.30;;;18.20;67.10;;;;;;5114861;28;20035;-79
2023/06/30 05:57:19;;;;;;;;;;;18.30;67.20;;;;;;5114756;28;20039;-78
2023/06/30 05:59:45;;;;;;;0.20;0.15;;;18.30;67.00;;;;;;5114567;28;20022;-78
2023/06/30 06:02:11;;;;;;;0.40;0.40;;;18.40;66.40;;;;;;5115305;28;20098;-79
2023/06/30 06:04:37;;;;;;;;;;;18.50;66.50;;;;;;5097918;28;20050;-79
2023/06/30 06:07:05;;;;;;;0.50;0.43;;;18.60;66.30;;;;;;5097082;28;20357;-78
2023/06/30 06:09:32;;;;;;;0.25;0.25;;;18.70;65.80;;;;;;5114115;28;20044;-79
2023/06/30 06:11:58;;;;;;;0.25;0.22;;;18.80;66.70;;;;;;5096753;28;20038;-78
2023/06/30 06:14:24;;;;;;;;;;;18.90;65.90;;;;;;5097648;28;20036;-78
2023/06/30 06:16:50;;;;;;;0.25;0.25;;;19.00;66.10;;;;;;5113838;28;19911;-79
2023/06/30 06:19:17;;;;;;;1.17;0.85;;;19.10;66.00;;;;;;5114151;28;20035;-79
2023/06/30 06:21:43;;;;;;;0.68;0.40;;;19.10;65.80;;;;;;5096634;28;20034;-78
2023/06/30 06:24:09;;;;;;;0.93;0.45;;;19.30;65.50;;;;;;5115464;28;20089;-79
2023/06/30 06:26:36;;;;;;;;;;;19.40;66.00;;;;;;5113894;28;20446;-78
2023/06/30 06:29:02;;;;;;;2.35;1.42;;;19.50;65.90;;;;;;5097067;28;19923;-79
2023/06/30 06:31:29;;;;;;;0.40;0.40;;;19.60;65.50;;;;;;5113364;28;20035;-79
2023/06/30 06:33:55;;;;;;;0.73;0.50;;;19.70;64.80;;;;;;5096794;28;20408;-78
2023/06/30 06:36:21;;;;;;;0.82;0.30;;;19.90;64.80;;;;;;5113465;28;20031;-79
2023/06/30 06:38:48;;;;;;;0.82;0.40;;;20.00;64.30;;;;;;5113701;28;20039;-79
2023/06/30 06:41:14;;;;;;;0.60;0.50;;;20.10;64.10;;;;;;5113190;27;20038;-78
2023/06/30 06:43:40;;;;;;;0.30;0.30;;;20.20;63.60;;;;;;5113564;28;20031;-79
2023/06/30 06:46:06;;;;;;;0.47;0.47;;;20.40;63.40;;;;;;5114523;28;20263;-79
2023/06/30 06:48:32;;;;;;;1.27;0.50;;;20.50;62.90;;;;;;5096399;28;20066;-79
2023/06/30 06:50:59;;;;;;;;;;;20.60;62.40;;;;;;5114845;28;20103;-78
2023/06/30 06:53:44;;;;;;;;;;;20.70;62.40;;;;;;5096998;28;20280;-78
2023/06/30 06:56:10;;;;;;;1.08;0.70;;;20.90;62.00;;;;;;5112897;28;20872;-79
2023/06/30 06:58:36;;;;;;;0.95;0.40;;;21.00;61.70;;;;;;5096095;28;20530;-79
2023/06/30 07:01:02;;;;;;;;;;;21.10;61.20;;;;;;5096424;28;20031;-79
2023/06/30 07:03:28;;;;;;;1.27;0.35;;;21.10;60.90;;;;;;5096117;28;19971;-80
2023/06/30 07:05:56;;;;;;;1.65;0.98;;;21.10;59.70;;;;;;5095690;28;20035;-79
2023/06/30 07:08:22;;;;;;;0.40;0.40;;;21.30;59.60;;;;;;5096141;28;20048;-79
2023/06/30 07:10:50;;;;;;;0.93;0.38;;;21.50;59.50;;;;;;5112573;28;20071;-79
2023/06/30 07:13:19;;;;;;;0.57;0.50;;;21.70;59.60;;;;;;5096089;28;20027;-79
2023/06/30 07:15:47;;;;;;;0.55;0.30;;;21.80;58.90;;;;;;5095535;28;20499;-79
2023/06/30 07:18:17;;;;;;;0.30;0.20;;;22.00;58.90;;;;;;5113032;28;20023;-79
2023/06/30 07:20:44;;;;;;;0.38;0.30;;;22.20;58.40;;;;;;5096119;28;20054;-78
2023/06/30 07:23:10;;;;;;;0.43;0.20;;;22.30;58.40;;;;;;5095737;28;20115;-79
2023/06/30 07:25:36;;;;;;;;;;;22.30;58.90;;;;;;5112597;28;20023;-79
2023/06/30 07:28:03;;;;;;;0.93;0.47;;;22.40;59.00;;;;;;5114056;28;19918;-79
2023/06/30 07:30:29;;;;;;;1.75;0.63;;;22.50;57.70;;;;;;5095160;28;20050;-79
2023/06/30 07:32:55;;;;;;;;;;;22.60;57.50;;;;;;5114362;28;20072;-79
2023/06/30 07:35:22;;;;;;;0.77;0.57;;;22.60;57.70;;;;;;5112267;28;20028;-79
2023/06/30 07:37:50;;;;;;;1.02;0.98;;;22.70;56.70;;;;;;5094858;28;20032;-78
2023/06/30 07:40:18;;;;;;;3.33;0.47;;;22.80;56.20;;;;;;5095000;28;20429;-79
2023/06/30 07:42:45;;;;;;;0.68;0.40;;;22.80;55.50;;;;;;5095390;28;20035;-78
2023/06/30 07:45:14;;;;;;;0.35;0.25;;;22.90;55.10;;;;;;5095070;28;20039;-79
2023/06/30 07:47:42;;;;;;;0.10;0.10;;;23.00;55.40;;;;;;5095419;28;20032;-79
2023/06/30 07:50:12;;;;;;;0.60;0.52;;;23.20;55.50;;;;;;5095112;28;20062;-79
2023/06/30 07:52:42;;;;;;;0.93;0.60;;;23.30;55.00;;;;;;5112049;28;20036;-79
2023/06/30 07:55:10;;;;;;;0.95;0.68;;;23.40;54.80;;;;;;5112046;28;20074;-78
2023/06/30 07:57:36;;;;;;;1.58;1.25;;;23.50;54.00;;;;;;5112217;28;20024;-79
2023/06/30 08:00:04;;;;;;;1.08;0.47;;;23.60;54.10;;;;;;5112451;28;20031;-79
2023/06/30 08:02:30;;;;;;;1.13;1.02;;;23.60;53.30;;;;;;5112023;28;20488;-79
2023/06/30 08:04:57;;;;;;;0.57;0.57;;;23.60;53.30;;;;;;5112249;28;20040;-79
2023/06/30 08:07:23;;;;;;;0.85;0.60;;;23.70;53.60;;;;;;5094839;28;20080;-78
2023/06/30 08:09:49;;;;;;;1.02;0.95;;;23.80;53.40;;;;;;5111818;28;20400;-79
2023/06/30 08:12:15;;;;;;;0.73;0.40;;;23.80;53.00;;;;;;5111715;28;20032;-79
2023/06/30 08:14:42;;;;;;;0.93;0.60;;;23.90;52.00;;;;;;5112113;28;20054;-78
2023/06/30 08:17:08;;;;;;;0.35;0.35;;;24.10;52.00;;;;;;5094735;28;20023;-78
2023/06/30 08:19:37;;;;;;;;;;;24.20;51.70;;;;;;5112554;28;20044;-79
2023/06/30 08:22:04;;;;;;;0.98;0.77;;;24.20;52.10;;;;;;5094982;28;19956;-78
2023/06/30 08:24:30;;;;;;;0.75;0.40;;;24.30;51.00;;;;;;5111872;28;20028;-78
2023/06/30 08:26:56;;;;;;;0.88;0.52;;;24.30;51.50;;;;;;5094351;28;20395;-78
2023/06/30 08:29:22;;;;;;;;;;;24.40;50.80;;;;;;5112659;28;20039;-78
2023/06/30 08:31:48;;;;;;;0.43;0.38;;;24.40;50.60;;;;;;5111425;28;19918;-78
2023/06/30 08:34:14;;;;;;;0.50;0.50;;;24.50;50.80;;;;;;5094707;28;20032;-79
2023/06/30 08:36:40;;;;;;;;;;;24.70;50.60;;;;;;5111862;28;20072;-79
2023/06/30 08:39:06;;;;;;;0.20;0.20;;;24.80;50.30;;;;;;5113198;28;19919;-79
2023/06/30 08:41:34;;;;;;;0.30;0.30;;;24.80;48.90;;;;;;5112389;28;20103;-78
2023/06/30 08:44:01;;;;;;;0.20;0.20;;;24.90;48.90;;;;;;5094784;28;20086;-78
2023/06/30 08:46:29;;;;;;;0.43;0.25;;;25.00;48.70;;;;;;5094283;28;20093;-79
2023/06/30 08:48:55;;;;;;;2.55;1.20;;;25.10;47.70;;;;;;5111688;28;20383;-79
2023/06/30 08:51:22;;;;;;;1.00;0.50;;;25.20;48.00;;;;;;5115383;28;20110;-78
2023/06/30 08:53:51;;;;;;;0.30;0.30;;;25.30;48.40;;;;;;5115388;28;20047;-79
2023/06/30 08:56:17;;;;;;;1.23;0.63;;;25.40;46.40;;;;;;5115376;28;20468;-79
2023/06/30 08:58:44;;;;;;;0.43;0.43;;;25.40;47.00;;;;;;5115476;28;20047;-79
2023/06/30 09:01:13;;;;;;;0.77;0.43;;;25.50;46.20;;;;;;5115084;28;20392;-78
2023/06/30 09:03:39;;;;;;;0.22;0.22;;;25.60;46.80;;;;;;5115325;28;20058;-78
2023/06/30 09:06:07;;;;;;;0.47;0.40;;;25.70;47.30;;;;;;5116264;28;20031;-79
2023/06/30 09:09:10;;;;;;;0.43;0.40;;;25.80;47.10;;;;;;5115425;28;20035;-79
2023/06/30 09:11:38;;;;;;;1.02;0.85;;;25.90;46.80;;;;;;5097939;28;20036;-79
2023/06/30 09:14:07;;;;;;;0.43;0.38;;;26.00;47.10;;;;;;5116683;28;20361;-78
2023/06/30 09:16:33;;;;;;;1.23;0.80;;;26.10;46.20;;;;;;5114590;28;20042;-79
2023/06/30 09:19:00;;;;;;;0.75;0.40;;;26.10;46.00;;;;;;5116685;28;20480;-78
2023/06/30 09:21:26;;;;;;;1.23;0.77;;;26.20;46.00;;;;;;5115930;28;20050;-78
2023/06/30 09:23:52;;;;;;;0.35;0.22;;;26.20;45.90;;;;;;5098199;28;20043;-79
2023/06/30 09:26:18;;;;;;;0.95;0.60;;;26.40;45.70;;;;;;5114664;28;20403;-79
2023/06/30 09:28:45;;;;;;;0.80;0.60;;;26.50;45.60;;;;;;5115121;28;20019;-79
2023/06/30 09:31:12;;;;;;;0.50;0.50;;;26.70;45.60;;;;;;5114724;28;20413;-79
2023/06/30 09:33:40;;;;;;;0.60;0.45;;;27.00;45.00;;;;;;5116170;28;20434;-79
2023/06/30 09:36:06;;;;;;;1.23;1.08;;;27.30;44.30;;;;;;5114334;28;20030;-79
2023/06/30 09:38:34;;;;;;;0.30;0.30;;;27.50;44.00;;;;;;5116172;28;20078;-78
2023/06/30 09:41:05;;;;;;;0.43;0.32;;;27.70;43.70;;;;;;5115640;28;20035;-79
2023/06/30 09:43:32;;;;;;;0.38;0.38;;;28.10;42.70;;;;;;5097810;28;20043;-79
2023/06/30 09:46:01;;;;;;;1.58;0.95;;;28.70;42.20;;;;;;5097396;28;20111;-79
2023/06/30 09:48:45;;;;;;;1.02;0.55;;;29.40;40.80;;;;;;5097733;28;20045;-79
2023/06/30 09:51:15;;;;;;;0.30;0.30;;;30.40;38.70;;;;;;5097276;28;20032;-79
2023/06/30 09:53:41;;;;;;;0.70;0.38;;;31.10;37.10;;;;;;5114494;28;20032;-80
2023/06/30 09:56:09;;;;;;;1.30;0.38;;;31.60;35.10;;;;;;5114174;28;20043;-79
2023/06/30 09:58:37;;;;;;;0.20;0.20;;;32.10;35.00;;;;;;5097457;28;20510;-79
2023/06/30 10:01:04;;;;;;;0.50;0.50;;;33.00;34.40;;;;;;5096407;28;20024;-80
2023/06/30 10:03:30;;;;;;;0.25;0.25;;;33.70;32.00;;;;;;5097212;28;20061;-79
2023/06/30 10:05:57;;;;;;;0.25;0.22;;;34.30;30.90;;;;;;5113896;28;20077;-79
2023/06/30 10:08:25;;;;;;;0.38;0.38;;;34.90;29.80;;;;;;5097283;28;20089;-79
2023/06/30 10:13:40;;;;;;;0.25;0.25;;;35.80;28.10;;;;;;5115414;28;20058;-79
2023/06/30 10:16:07;;;;;;;0.70;0.60;;;36.30;26.50;;;;;;5096820;28;20467;-79
2023/06/30 10:18:45;;;;;;;0.50;0.50;;;36.50;26.60;;;;;;5114045;28;20486;-79
2023/06/30 10:21:12;;;;;;;0.40;0.40;;;37.20;26.70;;;;;;5114131;28;20101;-79
2023/06/30 10:23:39;;;;;;;0.40;0.40;;;37.90;24.70;;;;;;5113992;28;20039;-79
2023/06/30 10:26:06;;;;;;;0.82;0.80;;;38.60;25.10;;;;;;5113604;28;20027;-78
2023/06/30 10:28:35;;;;;;;1.17;0.80;;;39.20;24.30;;;;;;5113929;28;20504;-78
2023/06/30 10:31:02;;;;;;;0.80;0.60;;;39.50;23.30;;;;;;5113549;28;20023;-78
2023/06/30 10:33:28;;;;;;;0.80;0.70;;;39.80;22.30;;;;;;5096659;28;20040;-78
2023/06/30 10:35:57;;;;;;;0.43;0.43;;;39.80;21.70;;;;;;5113484;28;20028;-78
2023/06/30 10:38:24;;;;;;;1.38;0.98;;;40.30;22.20;;;;;;5096655;28;20039;-78
2023/06/30 10:40:50;;;;;;;0.50;0.50;;;41.00;21.90;;;;;;5113236;28;20438;-79
2023/06/30 10:43:17;;;;;;;0.43;0.40;;;41.90;21.00;;;;;;5096626;28;20035;-78
2023/06/30 10:46:03;;;;;;;0.40;0.40;;;42.60;20.80;;;;;;5113088;28;20464;-79
2023/06/30 10:48:30;;;;;;;0.57;0.57;;;43.20;20.60;;;;;;5113528;28;20476;-79
2023/06/30 10:50:56;;;;;;;0.93;0.80;;;43.30;19.00;;;;;;5095887;28;20366;-79
2023/06/30 10:53:22;;;;;;;0.60;0.60;;;43.70;19.10;;;;;;5114722;28;20040;-78
2023/06/30 10:55:48;;;;;;;0.55;0.50;;;44.30;18.60;;;;;;5095861;28;20392;-78
2023/06/30 10:58:40;;;;;;;0.60;0.60;;;44.50;17.90;;;;;;5113407;28;20031;-78
2023/06/30 11:01:07;;;;;;;1.55;1.20;;;44.70;17.40;;;;;;5095882;28;20031;-79
2023/06/30 11:04:11;;;;;;;0.50;0.50;;;45.00;17.50;;;;;;5113318;28;20042;-79
2023/06/30 11:06:37;;;;;;;0.63;0.63;;;45.10;17.20;;;;;;5112669;28;20039;-79
2023/06/30 11:09:09;;;;;;;0.68;0.68;;;45.30;16.30;;;;;;5112827;28;20399;-79
2023/06/30 11:11:54;;;;;;;0.52;0.52;;;45.00;16.40;;;;;;5112720;28;20023;-79
2023/06/30 11:15:08;;;;;;;1.15;1.05;;;44.90;16.60;;;;;;5113691;28;20032;-79
2023/06/30 11:17:52;;;;;;;1.45;1.35;;;44.90;16.00;;;;;;5114127;28;20066;-79
2023/06/30 11:20:19;;;;;;;0.75;0.70;;;45.50;16.60;;;;;;5112372;28;20051;-78
2023/06/30 11:23:05;;;;;;;0.90;0.80;;;46.20;16.00;;;;;;5095895;28;20395;-79
2023/06/30 11:25:34;;;;;;;1.48;1.17;;;46.40;15.40;;;;;;5095234;28;20126;-78
2023/06/30 11:28:04;;;;;;;1.70;1.35;;;46.70;15.40;;;;;;5095830;28;20161;-79
2023/06/30 11:30:49;;;;;;;1.30;1.05;;;46.90;14.50;;;;;;5112257;28;20062;-79
2023/06/30 11:33:15;;;;;;;1.35;1.20;;;46.50;15.30;;;;;;5095748;28;20035;-77
2023/06/30 11:35:41;;;;;;;1.33;1.23;;;46.60;15.10;;;;;;5112255;28;20484;-78
2023/06/30 11:38:09;;;;;;;1.13;1.00;;;46.80;15.40;;;;;;5112642;28;20058;-78
2023/06/30 11:40:35;;;;;;;1.38;1.27;;;47.20;15.20;;;;;;5095081;28;20055;-79
2023/06/30 11:43:03;;;;;;;1.38;1.15;;;47.30;15.60;;;;;;5113783;28;20027;-78
2023/06/30 11:45:29;;;;;;;1.77;1.25;;;47.60;14.80;;;;;;5111833;28;20035;-79
2023/06/30 11:47:56;;;;;;;1.02;0.95;;;47.90;14.00;;;;;;5095338;28;20488;-79
2023/06/30 11:50:25;;;;;;;1.88;1.10;;;47.60;14.50;;;;;;5094756;28;20044;-79
2023/06/30 11:52:51;;;;;;;1.55;1.10;;;48.10;14.30;;;;;;5112332;28;20370;-80
2023/06/30 11:55:18;;;;;;;1.30;1.20;;;48.40;14.10;;;;;;5111911;28;20036;-81
2023/06/30 11:57:46;;;;;;;1.85;1.30;;;48.50;14.60;;;;;;5095260;28;20504;-79
2023/06/30 12:00:32;;;;;;;1.65;1.50;;;48.80;13.90;;;;;;5112033;28;20099;-79
2023/06/30 12:02:58;;;;;;;2.67;2.03;;;48.90;13.80;;;;;;5112030;28;20024;-79
2023/06/30 12:05:26;;;;;;;1.23;0.95;;;48.80;13.40;;;;;;5112771;28;20047;-78
2023/06/30 12:07:57;;;;;;;1.15;1.05;;;48.90;12.80;;;;;;5112231;28;20031;-79
2023/06/30 12:10:42;;;;;;;1.20;1.10;;;48.90;13.50;;;;;;5094932;28;20044;-78
2023/06/30 12:13:10;;;;;;;0.70;0.70;;;48.60;13.20;;;;;;5111925;28;20032;-79
2023/06/30 12:15:36;;;;;;;1.20;0.98;;;48.80;13.60;;;;;;5112754;28;20110;-79
2023/06/30 12:18:04;;;;;;;1.25;1.15;;;49.00;13.30;;;;;;5095115;28;20110;-79
2023/06/30 12:20:50;;;;;;;1.13;1.02;;;49.40;13.40;;;;;;5094583;28;20110;-80
2023/06/30 12:23:28;;;;;;;1.45;1.10;;;49.70;13.00;;;;;;5095067;28;20051;-78
2023/06/30 12:25:57;;;;;;;1.20;1.10;;;49.70;13.00;;;;;;5094235;28;20019;-79
2023/06/30 12:28:23;;;;;;;1.20;1.10;;;49.80;13.20;;;;;;5113308;28;20070;-81
2023/06/30 12:30:49;;;;;;;0.82;0.82;;;50.30;12.90;;;;;;5094397;28;20080;-82
2023/06/30 12:33:35;;;;;;;1.00;1.00;;;50.30;12.40;;;;;;5111779;28;20076;-80
2023/06/30 12:36:21;;;;;;;;;;;49.80;12.80;;;;;;5094956;28;20035;-79
2023/06/30 12:38:47;;;;;;;0.82;0.82;;;49.90;12.30;;;;;;5094835;28;19919;-80
2023/06/30 12:41:14;;;;;;;1.40;1.23;;;50.30;12.20;;;;;;5111461;28;20046;-78
2023/06/30 12:43:40;;;;;;;1.17;1.08;;;49.80;12.10;;;;;;5111773;28;20067;-79
2023/06/30 12:46:06;;;;;;;1.30;1.20;;;50.20;12.40;;;;;;5112628;28;20392;-80
2023/06/30 12:48:32;;;;;;;1.27;1.17;;;50.20;12.20;;;;;;5111530;28;20035;-79
2023/06/30 12:50:58;;;;;;;1.08;0.98;;;49.80;12.70;;;;;;5094251;28;20395;-79
2023/06/30 12:53:24;;;;;;;1.20;1.10;;;49.70;13.00;;;;;;5111551;28;20046;-79
2023/06/30 12:55:51;;;;;;;4.32;1.58;;;49.70;12.50;;;;;;5111177;28;20027;-79
2023/06/30 12:58:17;;;;;;;1.10;1.00;;;49.10;12.50;;;;;;5111617;28;20036;-78
2023/06/30 13:00:43;;;;;;;1.10;1.00;;;48.30;13.30;;;;;;5112310;28;20028;-78
2023/06/30 13:03:10;;;;;;;1.10;1.00;;;47.20;13.80;;;;;;5111596;28;20032;-78
2023/06/30 13:05:38;;;;;;;0.80;0.80;;;46.50;14.90;;;;;;5094124;28;20461;-78